createdAt,value
2022-10-13T00:00:43.371Z,81.61
2022-10-13T00:03:10.788Z,81.22
2022-10-13T00:05:42.229Z,80.88
2022-10-13T00:08:09.775Z,81.76
2022-10-13T00:10:42.492Z,81.98
2022-10-13T00:13:12.138Z,82.66
2022-10-13T00:15:40.049Z,83.55
2022-10-13T00:18:07.550Z,84.04
2022-10-13T00:20:35.272Z,83.98
2022-10-13T00:23:02.529Z,83.32
2022-10-13T00:25:29.823Z,83.48
2022-10-13T00:27:57.113Z,83.51
2022-10-13T00:30:36.552Z,84.01
2022-10-13T00:33:03.893Z,84.68
2022-10-13T00:35:31.105Z,84.98
2022-10-13T00:37:58.476Z,84.09
2022-10-13T00:40:30.357Z,83.38
2022-10-13T00:42:57.647Z,82.91
2022-10-13T00:45:26.458Z,82.42
2022-10-13T00:47:58.230Z,82.25
2022-10-13T00:50:36.074Z,83.40
2022-10-13T00:53:05.935Z,84.22
2022-10-13T00:55:35.082Z,84.43
2022-10-13T00:58:05.546Z,83.94
2022-10-13T01:00:33.498Z,83.28
2022-10-13T01:03:01.703Z,83.41
2022-10-13T01:05:29.038Z,83.89
2022-10-13T01:07:56.219Z,84.37
2022-10-13T01:10:29.526Z,84.58
2022-10-13T01:13:04.123Z,84.36
2022-10-13T01:15:40.789Z,84.55
2022-10-13T01:18:10.599Z,84.86
2022-10-13T01:20:49.357Z,85.21
2022-10-13T01:23:31.799Z,85.11
2022-10-13T01:26:18.589Z,83.97
2022-10-13T01:29:02.466Z,83.65
2022-10-13T01:31:29.752Z,83.70
2022-10-13T01:34:17.711Z,83.93
2022-10-13T01:36:55.100Z,83.05
2022-10-13T01:39:52.978Z,83.42
2022-10-13T01:42:24.881Z,84.04
2022-10-13T01:44:53.573Z,84.48
2022-10-13T01:47:20.770Z,84.75
2022-10-13T01:49:50.907Z,84.86
2022-10-13T01:52:19.146Z,84.14
2022-10-13T01:54:51.247Z,83.26
2022-10-13T01:57:35.521Z,83.81
2022-10-13T02:00:12.971Z,84.36
2022-10-13T02:02:48.491Z,84.53
2022-10-13T02:05:37.939Z,84.12
2022-10-13T02:08:10.745Z,83.65
2022-10-13T02:10:45.036Z,83.44
2022-10-13T02:13:13.134Z,82.90
2022-10-13T02:15:41.936Z,82.50
2022-10-13T02:18:09.894Z,83.44
2022-10-13T02:20:37.117Z,83.51
2022-10-13T02:23:09.352Z,82.32
2022-10-13T02:25:36.798Z,81.85
2022-10-13T02:28:04.194Z,81.99
2022-10-13T02:30:35.689Z,82.19
2022-10-13T02:33:03.277Z,82.60
2022-10-13T02:35:31.161Z,82.34
2022-10-13T02:38:02.596Z,83.20
2022-10-13T02:40:30.069Z,84.03
2022-10-13T02:42:57.309Z,84.67
2022-10-13T02:45:24.629Z,84.91
2022-10-13T02:47:56.118Z,85.34
2022-10-13T02:50:23.378Z,85.19
2022-10-13T02:52:50.960Z,85.48
2022-10-13T02:55:18.297Z,85.63
2022-10-13T02:57:46.419Z,86.43
2022-10-13T03:00:14.436Z,85.56
2022-10-13T03:02:42.310Z,86.20
2022-10-13T03:05:09.828Z,86.44
2022-10-13T03:07:37.091Z,86.83
2022-10-13T03:10:05.206Z,86.36
2022-10-13T03:12:32.449Z,86.40
2022-10-13T03:14:59.731Z,86.16
2022-10-13T03:17:27.483Z,86.10
2022-10-13T03:19:54.782Z,85.76
2022-10-13T03:22:22.363Z,85.59
2022-10-13T03:24:52.571Z,85.56
2022-10-13T03:27:19.893Z,84.92
2022-10-13T03:29:47.106Z,84.73
2022-10-13T03:32:14.590Z,84.64
2022-10-13T03:34:41.784Z,84.48
2022-10-13T03:37:09.226Z,85.11
2022-10-13T03:39:42.227Z,85.85
2022-10-13T03:42:10.986Z,85.76
2022-10-13T03:44:39.739Z,85.70
2022-10-13T03:47:07.088Z,86.38
2022-10-13T03:49:34.545Z,86.65
2022-10-13T03:52:01.991Z,86.38
2022-10-13T03:54:29.244Z,86.28
2022-10-13T03:56:57.768Z,86.22
2022-10-13T03:59:24.999Z,86.19
2022-10-13T04:01:52.381Z,86.37
2022-10-13T04:04:19.639Z,85.50
2022-10-13T04:06:47.630Z,85.85
2022-10-13T04:09:14.843Z,85.87
2022-10-13T04:11:42.149Z,85.40
2022-10-13T04:14:09.394Z,86.27
2022-10-13T04:16:36.676Z,86.36
2022-10-13T04:19:05.466Z,85.83
2022-10-13T04:21:36.223Z,85.22
2022-10-13T04:24:03.849Z,85.07
2022-10-13T04:26:32.687Z,85.10
2022-10-13T04:29:07.604Z,85.37
2022-10-13T04:31:35.276Z,85.62
2022-10-13T04:34:02.562Z,85.48
2022-10-13T04:36:30.084Z,85.36
2022-10-13T04:38:57.432Z,85.27
2022-10-13T04:41:25.923Z,85.66
2022-10-13T04:43:53.541Z,86.86
2022-10-13T04:46:23.480Z,86.88
2022-10-13T04:48:51.791Z,87.52
2022-10-13T04:51:23.576Z,87.68
2022-10-13T04:53:55.866Z,87.86
2022-10-13T04:56:23.465Z,87.82
2022-10-13T04:58:50.993Z,87.66
2022-10-13T05:01:22.193Z,88.18
2022-10-13T05:03:57.690Z,88.87
2022-10-13T05:06:26.550Z,88.86
2022-10-13T05:08:56.384Z,88.91
2022-10-13T05:11:24.486Z,89.50
2022-10-13T05:13:52.330Z,89.28
2022-10-13T05:16:21.176Z,88.88
2022-10-13T05:18:49.372Z,88.52
2022-10-13T05:21:21.249Z,87.95
2022-10-13T05:23:49.201Z,87.70
2022-10-13T05:26:20.634Z,86.99
2022-10-13T05:28:50.131Z,86.21
2022-10-13T05:31:22.664Z,86.27
2022-10-13T05:33:54.205Z,86.27
2022-10-13T05:36:26.845Z,85.99
2022-10-13T05:38:55.713Z,86.83
2022-10-13T05:41:23.747Z,87.38
2022-10-13T05:44:02.361Z,87.93
2022-10-13T05:46:29.845Z,87.85
2022-10-13T05:48:58.055Z,87.75
2022-10-13T05:51:28.845Z,88.15
2022-10-13T05:54:22.085Z,88.74
2022-10-13T05:57:00.860Z,88.90
2022-10-13T05:59:30.734Z,88.36
2022-10-13T06:01:58.847Z,87.86
2022-10-13T06:04:31.082Z,88.71
2022-10-13T06:06:59.193Z,88.85
2022-10-13T06:09:29.278Z,88.97
2022-10-13T06:11:57.182Z,88.10
2022-10-13T06:14:24.660Z,88.42
2022-10-13T06:16:54.851Z,88.62
2022-10-13T06:19:22.861Z,88.44
2022-10-13T06:21:50.430Z,88.36
2022-10-13T06:24:18.724Z,87.52
2022-10-13T06:26:46.877Z,86.71
2022-10-13T06:29:14.470Z,86.45
2022-10-13T06:31:41.924Z,86.37
2022-10-13T06:34:10.519Z,86.47
2022-10-13T06:36:38.741Z,86.61
2022-10-13T06:39:05.987Z,86.30
2022-10-13T06:41:33.713Z,85.48
2022-10-13T06:44:04.213Z,85.72
2022-10-13T06:46:32.195Z,85.59
2022-10-13T06:48:59.814Z,85.69
2022-10-13T06:51:27.674Z,85.67
2022-10-13T06:53:58.261Z,86.09
2022-10-13T06:56:28.023Z,85.45
2022-10-13T06:58:59.346Z,85.16
2022-10-13T07:01:27.177Z,85.05
2022-10-13T07:03:55.628Z,83.94
2022-10-13T07:06:35.562Z,83.26
2022-10-13T07:09:08.459Z,82.67
2022-10-13T07:11:37.142Z,80.86
2022-10-13T07:14:05.261Z,78.56
2022-10-13T07:16:33.059Z,75.65
2022-10-13T07:19:03.159Z,72.54
2022-10-13T07:21:30.819Z,70.16
2022-10-13T07:23:58.472Z,69.38
2022-10-13T07:26:28.605Z,67.73
2022-10-13T07:28:56.405Z,66.62
2022-10-13T07:31:24.685Z,67.23
2022-10-13T07:33:53.025Z,67.53
2022-10-13T07:36:27.792Z,66.19
2022-10-13T07:38:55.974Z,65.09
2022-10-13T07:41:23.681Z,66.56
2022-10-13T07:43:58.216Z,67.10
2022-10-13T07:46:26.171Z,66.93
2022-10-13T07:48:54.394Z,67.47
2022-10-13T07:51:22.054Z,67.92
2022-10-13T07:53:49.505Z,68.36
2022-10-13T07:56:17.104Z,67.94
2022-10-13T07:58:46.130Z,68.54
2022-10-13T08:01:14.578Z,68.70
2022-10-13T08:03:45.563Z,69.79
2022-10-13T08:06:18.997Z,71.98
2022-10-13T08:08:46.379Z,76.37
2022-10-13T08:11:17.503Z,77.98
2022-10-13T08:13:50.366Z,77.83
2022-10-13T08:16:26.936Z,78.26
2022-10-13T08:18:55.023Z,78.39
2022-10-13T08:24:15.523Z,79.04
2022-10-13T08:26:43.327Z,79.00
2022-10-13T08:29:26.327Z,79.19
2022-10-13T08:31:54.397Z,78.42
2022-10-13T08:34:25.147Z,78.59
2022-10-13T08:36:54.638Z,78.27
2022-10-13T08:39:23.084Z,77.75
2022-10-13T08:41:50.676Z,77.15
2022-10-13T08:45:15.697Z,77.06
2022-10-13T08:47:48.465Z,76.38
2022-10-13T08:50:22.466Z,77.01
2022-10-13T08:52:54.545Z,76.60
2022-10-13T08:55:44.490Z,75.87
2022-10-13T08:58:29.473Z,75.62
2022-10-13T09:01:09.752Z,75.74
2022-10-13T09:04:08.733Z,74.36
2022-10-13T09:06:49.282Z,73.63
2022-10-13T09:09:18.142Z,73.45
2022-10-13T09:11:52.161Z,73.18
2022-10-13T09:14:31.530Z,72.72
2022-10-13T09:17:22.452Z,72.88
2022-10-13T09:20:21.156Z,71.96
2022-10-13T09:23:12.541Z,71.91
2022-10-13T09:25:42.063Z,72.13
2022-10-13T09:28:14.892Z,72.12
2022-10-13T09:30:44.415Z,71.34
2022-10-13T09:33:12.281Z,71.11
2022-10-13T09:35:40.473Z,70.22
2022-10-13T09:38:21.721Z,70.05
2022-10-13T09:41:04.853Z,70.03
2022-10-13T09:43:33.900Z,69.66
2022-10-13T09:46:02.319Z,69.59
2022-10-13T09:48:31.707Z,68.56
2022-10-13T09:51:00.099Z,68.64
2022-10-13T09:53:40.870Z,67.19
2022-10-13T09:56:19.909Z,66.83
2022-10-13T09:59:02.288Z,65.92
2022-10-13T10:01:34.222Z,66.92
2022-10-13T10:04:04.959Z,66.80
2022-10-13T10:06:33.389Z,66.60
2022-10-13T10:09:44.208Z,66.52
2022-10-13T10:12:30.365Z,65.99
2022-10-13T10:14:58.226Z,67.02
2022-10-13T10:17:28.696Z,66.62
2022-10-13T10:20:01.012Z,66.49
2022-10-13T10:22:42.875Z,67.44
2022-10-13T10:25:30.346Z,67.46
2022-10-13T10:28:09.922Z,67.30
2022-10-13T10:30:41.739Z,66.65
2022-10-13T10:33:14.785Z,67.59
2022-10-13T10:35:53.231Z,67.31
2022-10-13T10:39:00.295Z,67.13
2022-10-13T10:41:43.366Z,65.18
2022-10-13T10:44:13.359Z,65.93
2022-10-13T10:46:51.874Z,65.00
2022-10-13T10:49:33.076Z,64.75
2022-10-13T10:52:01.748Z,64.96
2022-10-13T10:54:35.426Z,66.07
2022-10-13T10:57:36.729Z,66.42
2022-10-13T11:00:21.329Z,66.50
2022-10-13T11:03:12.147Z,65.12
2022-10-13T11:06:25.149Z,65.63
2022-10-13T11:08:55.783Z,65.61
2022-10-13T11:11:25.101Z,64.26
2022-10-13T11:14:01.215Z,64.89
2022-10-13T11:16:39.562Z,64.09
2022-10-13T11:19:32.778Z,63.37
2022-10-13T11:22:00.447Z,63.62
2022-10-13T11:24:39.818Z,63.14
2022-10-13T11:27:16.468Z,62.44
2022-10-13T11:29:47.184Z,62.38
2022-10-13T11:32:35.845Z,62.65
2022-10-13T11:35:06.864Z,64.27
2022-10-13T11:38:08.767Z,62.54
2022-10-13T11:41:10.928Z,62.48
2022-10-13T11:43:46.807Z,62.59
2022-10-13T11:46:29.206Z,62.56
2022-10-13T11:49:03.046Z,64.29
2022-10-13T11:51:41.790Z,65.29
2022-10-13T11:54:13.712Z,66.37
2022-10-13T11:56:55.792Z,67.02
2022-10-13T11:59:34.155Z,66.78
2022-10-13T12:02:10.937Z,66.18
2022-10-13T12:04:42.787Z,66.53
2022-10-13T12:07:15.266Z,66.17
2022-10-13T12:09:53.381Z,63.30
2022-10-13T12:12:23.513Z,63.96
2022-10-13T12:14:55.262Z,64.94
2022-10-13T12:17:26.887Z,64.07
2022-10-13T12:19:56.240Z,65.80
2022-10-13T12:22:24.212Z,65.62
2022-10-13T12:24:58.842Z,65.65
2022-10-13T12:27:27.844Z,64.72
2022-10-13T12:29:55.824Z,64.21
2022-10-13T12:32:28.903Z,65.15
2022-10-13T12:34:56.928Z,64.94
2022-10-13T12:37:33.654Z,64.36
2022-10-13T12:40:01.414Z,64.38
2022-10-13T12:42:30.761Z,63.43
2022-10-13T12:44:58.736Z,62.50
2022-10-13T12:47:58.591Z,63.60
2022-10-13T12:50:27.639Z,62.33
2022-10-13T12:52:54.880Z,62.14
2022-10-13T12:55:22.751Z,61.48
2022-10-13T12:57:50.586Z,60.32
2022-10-13T13:00:21.357Z,59.93
2022-10-13T13:02:59.609Z,61.36
2022-10-13T13:05:33.771Z,61.46
2022-10-13T13:08:05.148Z,61.07
2022-10-13T13:10:32.623Z,61.34
2022-10-13T13:13:13.904Z,61.43
2022-10-13T13:15:41.896Z,61.00
2022-10-13T13:18:41.719Z,61.10
2022-10-13T13:21:11.299Z,60.93
2022-10-13T13:23:42.841Z,60.42
2022-10-13T13:26:15.672Z,60.14
2022-10-13T13:28:48.018Z,59.77
2022-10-13T13:31:17.056Z,59.34
2022-10-13T13:33:44.666Z,59.56
2022-10-13T13:36:19.171Z,60.34
2022-10-13T13:38:48.186Z,60.36
2022-10-13T13:41:15.771Z,60.84
2022-10-13T13:43:43.369Z,60.33
2022-10-13T13:46:17.082Z,60.82
2022-10-13T13:48:44.555Z,60.68
2022-10-13T13:51:11.842Z,59.95
2022-10-13T13:53:39.552Z,58.97
2022-10-13T13:56:15.217Z,58.39
2022-10-13T13:58:43.264Z,58.75
2022-10-13T14:01:11.163Z,57.36
2022-10-13T14:03:38.970Z,57.70
2022-10-13T14:06:08.410Z,57.99
2022-10-13T14:08:42.427Z,55.79
2022-10-13T14:11:10.566Z,56.95
2022-10-13T14:13:37.813Z,57.99
2022-10-13T14:16:05.461Z,58.64
2022-10-13T14:18:32.757Z,58.39
2022-10-13T14:21:00.093Z,58.51
2022-10-13T14:23:27.565Z,58.67
2022-10-13T14:25:54.907Z,59.20
2022-10-13T14:28:22.969Z,59.64
2022-10-13T14:30:50.429Z,60.34
2022-10-13T14:33:19.830Z,60.49
2022-10-13T14:35:47.304Z,60.24
2022-10-13T14:38:16.943Z,60.26
2022-10-13T14:40:44.873Z,60.15
2022-10-13T14:43:12.282Z,60.37
2022-10-13T14:45:39.884Z,61.00
2022-10-13T14:48:11.895Z,60.77
2022-10-13T14:50:39.218Z,61.21
2022-10-13T14:53:06.595Z,61.05
2022-10-13T14:55:33.977Z,61.36
2022-10-13T14:58:01.372Z,61.52
2022-10-13T15:00:28.948Z,61.37
2022-10-13T15:02:56.204Z,61.40
2022-10-13T15:05:26.114Z,61.22
2022-10-13T15:07:53.569Z,61.74
2022-10-13T15:10:20.794Z,62.02
2022-10-13T15:12:48.194Z,62.33
2022-10-13T15:15:15.473Z,62.64
2022-10-13T15:17:42.833Z,63.20
2022-10-13T15:20:10.616Z,63.20
2022-10-13T15:22:38.387Z,63.57
2022-10-13T15:25:10.556Z,63.85
2022-10-13T15:27:42.007Z,64.01
2022-10-13T15:30:10.060Z,64.81
2022-10-13T15:32:37.568Z,65.31
2022-10-13T15:35:06.478Z,65.85
2022-10-13T15:37:34.416Z,65.89
2022-10-13T15:40:01.821Z,66.87
2022-10-13T15:42:29.207Z,66.74
2022-10-13T15:45:09.324Z,66.74
2022-10-13T15:47:37.224Z,66.89
2022-10-13T15:50:04.926Z,66.86
2022-10-13T15:52:35.084Z,67.26
2022-10-13T15:55:02.560Z,66.93
2022-10-13T15:57:31.097Z,67.04
2022-10-13T15:59:58.478Z,67.08
2022-10-13T16:02:25.862Z,68.21
2022-10-13T16:04:53.431Z,68.40
2022-10-13T16:07:20.751Z,68.06
2022-10-13T16:09:48.233Z,68.92
2022-10-13T16:12:15.597Z,68.46
2022-10-13T16:14:43.289Z,69.22
2022-10-13T16:17:11.828Z,68.88
2022-10-13T16:19:39.828Z,69.66
2022-10-13T16:22:08.201Z,70.23
2022-10-13T16:24:37.622Z,69.72
2022-10-13T16:27:06.683Z,70.59
2022-10-13T16:29:34.424Z,71.44
2022-10-13T16:32:02.136Z,72.23
2022-10-13T16:34:29.552Z,72.81
2022-10-13T16:36:56.875Z,72.26
2022-10-13T16:39:24.936Z,73.19
2022-10-13T16:41:52.344Z,73.12
2022-10-13T16:44:23.029Z,72.26
2022-10-13T16:46:52.447Z,73.38
2022-10-13T16:49:19.782Z,73.98
2022-10-13T16:51:47.095Z,73.80
2022-10-13T16:54:14.418Z,73.50
2022-10-13T16:56:41.946Z,73.98
2022-10-13T16:59:10.161Z,73.53
2022-10-13T17:01:37.826Z,72.97
2022-10-13T17:04:05.255Z,72.87
2022-10-13T17:06:32.730Z,73.20
2022-10-13T17:09:00.546Z,73.94
2022-10-13T17:11:30.060Z,73.62
2022-10-13T17:13:57.987Z,74.39
2022-10-13T17:16:25.473Z,75.53
2022-10-13T17:18:53.337Z,75.12
2022-10-13T17:21:22.288Z,74.99
2022-10-13T17:23:49.770Z,75.57
2022-10-13T17:26:17.816Z,75.11
2022-10-13T17:28:45.339Z,75.52
2022-10-13T17:31:14.822Z,75.72
2022-10-13T17:33:42.353Z,75.25
2022-10-13T17:36:17.698Z,75.63
2022-10-13T17:38:45.253Z,75.63
2022-10-13T17:41:12.705Z,75.80
2022-10-13T17:43:49.864Z,75.94
2022-10-13T17:46:35.582Z,76.32
2022-10-13T17:49:03.941Z,76.26
2022-10-13T17:51:31.210Z,76.10
2022-10-13T17:53:59.000Z,75.87
2022-10-13T17:56:26.473Z,75.58
2022-10-13T17:58:54.080Z,75.48
2022-10-13T18:01:32.428Z,76.40
2022-10-13T18:04:08.856Z,77.00
2022-10-13T18:06:40.084Z,77.14
2022-10-13T18:09:08.938Z,76.43
2022-10-13T18:11:36.342Z,77.84
2022-10-13T18:14:03.874Z,77.16
2022-10-13T18:16:31.189Z,77.99
2022-10-13T18:18:58.626Z,78.14
2022-10-13T18:21:29.394Z,78.34
2022-10-13T18:23:58.026Z,78.69
2022-10-13T18:26:25.686Z,78.90
2022-10-13T18:28:53.167Z,79.87
2022-10-13T18:31:23.321Z,79.85
2022-10-13T18:33:58.710Z,80.00
2022-10-13T18:36:31.014Z,79.60
2022-10-13T18:39:05.479Z,78.65
2022-10-13T18:41:32.872Z,77.94
2022-10-13T18:44:00.505Z,77.50
2022-10-13T18:46:27.927Z,77.25
2022-10-13T18:48:55.371Z,77.22
2022-10-13T18:51:22.664Z,77.43
2022-10-13T18:53:52.884Z,78.10
2022-10-13T18:56:26.256Z,78.17
2022-10-13T18:58:59.290Z,78.19
2022-10-13T19:01:28.723Z,78.57
2022-10-13T19:03:56.067Z,78.26
2022-10-13T19:06:27.720Z,78.27
2022-10-13T19:09:00.851Z,78.35
2022-10-13T19:11:28.488Z,78.12
2022-10-13T19:13:55.777Z,78.28
2022-10-13T19:16:23.867Z,79.02
2022-10-13T19:18:51.197Z,79.51
2022-10-13T19:21:19.127Z,79.31
2022-10-13T19:23:46.574Z,79.39
2022-10-13T19:26:21.160Z,79.89
2022-10-13T19:28:48.481Z,79.67
2022-10-13T19:31:20.664Z,79.45
2022-10-13T19:33:50.420Z,79.26
2022-10-13T19:36:27.921Z,79.45
2022-10-13T19:38:57.343Z,79.00
2022-10-13T19:41:24.924Z,79.43
2022-10-13T19:43:52.188Z,80.31
2022-10-13T19:46:21.699Z,81.15
2022-10-13T19:48:49.056Z,81.06
2022-10-13T19:51:16.326Z,81.00
2022-10-13T19:53:43.757Z,80.83
2022-10-13T19:56:23.310Z,81.01
2022-10-13T19:58:51.316Z,80.96
2022-10-13T20:01:20.019Z,80.62
2022-10-13T20:03:47.506Z,79.72
2022-10-13T20:06:14.886Z,79.55
2022-10-13T20:08:42.451Z,80.23
2022-10-13T20:11:10.610Z,81.24
2022-10-13T20:13:38.037Z,81.25
2022-10-13T20:16:10.111Z,81.28
2022-10-13T20:18:37.767Z,81.67
2022-10-13T20:21:05.731Z,82.02
2022-10-13T20:23:33.184Z,82.41
2022-10-13T20:26:11.212Z,82.24
2022-10-13T20:28:43.179Z,81.61
2022-10-13T20:31:12.928Z,80.78
2022-10-13T20:33:40.394Z,80.51
2022-10-13T20:36:12.399Z,80.45
2022-10-13T20:38:39.854Z,81.20
2022-10-13T20:41:08.839Z,80.78
2022-10-13T20:43:37.058Z,82.01
2022-10-13T20:46:06.214Z,83.20
2022-10-13T20:48:51.475Z,82.83
2022-10-13T20:51:22.809Z,82.49
2022-10-13T20:53:50.034Z,82.87
2022-10-13T20:56:22.113Z,82.24
2022-10-13T20:58:49.674Z,81.67
2022-10-13T21:01:17.676Z,81.20
2022-10-13T21:03:45.203Z,81.26
2022-10-13T21:06:13.529Z,81.44
2022-10-13T21:08:40.964Z,81.33
2022-10-13T21:11:10.119Z,81.63
2022-10-13T21:13:38.399Z,81.35
2022-10-13T21:16:08.432Z,81.59
2022-10-13T21:18:35.846Z,81.73
2022-10-13T21:21:07.966Z,81.16
2022-10-13T21:23:35.495Z,81.52
2022-10-13T21:26:03.868Z,82.28
2022-10-13T21:28:31.532Z,82.42
2022-10-13T21:31:11.545Z,82.79
2022-10-13T21:33:39.185Z,83.09
2022-10-13T21:36:13.760Z,83.03
2022-10-13T21:38:41.662Z,82.98
2022-10-13T21:41:10.254Z,82.53
2022-10-13T21:43:37.637Z,82.40
2022-10-13T21:46:18.179Z,82.06
2022-10-13T21:48:45.981Z,81.30
2022-10-13T21:51:21.389Z,80.60
2022-10-13T21:53:52.831Z,81.01
2022-10-13T21:56:20.357Z,81.79
2022-10-13T21:58:49.062Z,82.12
2022-10-13T22:01:17.116Z,81.53
2022-10-13T22:03:44.472Z,81.20
2022-10-13T22:06:17.637Z,81.47
2022-10-13T22:08:47.012Z,81.32
2022-10-13T22:11:24.680Z,80.90
2022-10-13T22:13:52.111Z,80.85
2022-10-13T22:16:23.936Z,80.86
2022-10-13T22:18:52.307Z,80.98
2022-10-13T22:21:25.052Z,81.78
2022-10-13T22:23:55.185Z,82.69
2022-10-13T22:26:22.496Z,82.77
2022-10-13T22:28:51.765Z,82.13
2022-10-13T22:31:19.318Z,82.27
2022-10-13T22:33:46.545Z,82.85
2022-10-13T22:36:18.255Z,83.42
2022-10-13T22:38:46.008Z,83.39
2022-10-13T22:41:14.707Z,83.09
2022-10-13T22:43:44.231Z,83.18
2022-10-13T22:46:15.607Z,83.25
2022-10-13T22:48:43.172Z,83.52
2022-10-13T22:51:14.191Z,83.09
2022-10-13T22:53:41.705Z,83.10
2022-10-13T22:56:09.827Z,83.70
2022-10-13T22:58:37.375Z,83.38
2022-10-13T23:01:14.849Z,82.62
2022-10-13T23:03:42.314Z,81.71
2022-10-13T23:06:13.162Z,81.22
2022-10-13T23:08:40.951Z,82.25
2022-10-13T23:11:08.229Z,83.13
2022-10-13T23:13:35.738Z,83.18
2022-10-13T23:16:03.606Z,83.89
2022-10-13T23:18:35.073Z,84.30
2022-10-13T23:21:10.439Z,84.45
2022-10-13T23:23:37.885Z,84.49
2022-10-13T23:26:06.279Z,84.47
2022-10-13T23:28:33.870Z,84.17
2022-10-13T23:31:11.558Z,83.89
2022-10-13T23:33:38.876Z,83.63
2022-10-13T23:36:06.845Z,83.46
2022-10-13T23:38:34.275Z,83.86
2022-10-13T23:41:12.111Z,84.33
2022-10-13T23:43:40.878Z,84.08
2022-10-13T23:46:08.160Z,83.91
2022-10-13T23:48:35.519Z,83.65
2022-10-13T23:51:07.784Z,83.58
2022-10-13T23:53:36.372Z,83.49
2022-10-13T23:56:04.688Z,83.00
2022-10-13T23:58:32.284Z,82.76
